createdAt,value
2019-02-06T00:00:40.933Z,53.1
2019-02-06T00:05:43.006Z,53
2019-02-06T00:10:45.026Z,52.9
2019-02-06T00:15:48.146Z,52.9
2019-02-06T00:20:54.022Z,52.8
2019-02-06T00:25:55.990Z,52.7
2019-02-06T00:31:03.390Z,52.7
2019-02-06T00:36:14.171Z,52.6
2019-02-06T00:41:18.896Z,52.6
2019-02-06T00:46:23.851Z,52.5
2019-02-06T00:51:29.793Z,52.4
2019-02-06T00:56:37.602Z,52.3
2019-02-06T01:01:39.529Z,52.2
2019-02-06T01:06:41.805Z,52.2
2019-02-06T01:11:43.839Z,52.1
2019-02-06T01:16:45.782Z,52.1
2019-02-06T01:21:56.508Z,52
2019-02-06T01:26:58.429Z,51.9
2019-02-06T01:32:10.279Z,51.9
2019-02-06T01:37:12.218Z,51.8
2019-02-06T01:47:29.691Z,51.7
2019-02-06T01:52:33.532Z,51.6
2019-02-06T01:57:35.403Z,51.5
2019-02-06T02:02:38.567Z,51.4
2019-02-06T02:07:42.036Z,51.4
2019-02-06T02:12:49.954Z,51.3
2019-02-06T02:18:00.506Z,51.2
2019-02-06T02:23:06.293Z,51.2
2019-02-06T02:28:08.157Z,51.1
2019-02-06T02:33:20.172Z,51.1
2019-02-06T02:38:23.032Z,51
2019-02-06T02:43:25.260Z,50.9
2019-02-06T02:48:27.339Z,50.9
2019-02-06T02:53:32.110Z,50.8
2019-02-06T02:58:33.988Z,50.8
2019-02-06T03:03:44.384Z,50.6
2019-02-06T03:08:56.578Z,50.6
2019-02-06T03:13:59.907Z,50.6
2019-02-06T03:19:04.849Z,50.4
2019-02-06T03:24:09.718Z,50.4
2019-02-06T03:29:13.000Z,50.3
2019-02-06T03:34:17.958Z,50.2
2019-02-06T03:39:20.019Z,50.2
2019-02-06T03:44:25.085Z,50.1
2019-02-06T03:49:26.958Z,50.1
2019-02-06T03:54:34.490Z,50
2019-02-06T03:59:40.821Z,49.9
2019-02-06T04:04:42.692Z,49.9
2019-02-06T04:09:45.210Z,49.8
2019-02-06T04:14:47.676Z,49.7
2019-02-06T04:24:55.864Z,49.6
2019-02-06T04:30:02.549Z,49.6
2019-02-06T04:35:07.606Z,49.5
2019-02-06T04:40:27.538Z,49.4
2019-02-06T04:45:29.452Z,49.4
2019-02-06T04:50:34.288Z,49.3
2019-02-06T04:55:43.382Z,49.2
2019-02-06T05:00:45.421Z,49.2
2019-02-06T05:05:48.410Z,49.1
2019-02-06T05:10:50.195Z,49.1
2019-02-06T05:15:52.071Z,49
2019-02-06T05:20:58.309Z,48.9
2019-02-06T05:26:04.081Z,48.9
2019-02-06T05:31:05.926Z,48.8
2019-02-06T05:36:07.788Z,48.7
2019-02-06T05:41:12.655Z,48.7
2019-02-06T05:46:14.591Z,48.6
2019-02-06T05:51:16.414Z,48.6
2019-02-06T05:56:21.129Z,48.5
2019-02-06T06:01:22.931Z,48.3
2019-02-06T06:06:24.740Z,48.2
2019-02-06T06:11:26.718Z,48.1
2019-02-06T06:16:28.882Z,48.1
2019-02-06T06:21:30.716Z,48
2019-02-06T06:26:32.626Z,47.9
2019-02-06T06:31:34.576Z,47.9
2019-02-06T06:36:39.299Z,47.8
2019-02-06T06:41:45.061Z,47.8
2019-02-06T06:46:46.926Z,47.7
2019-02-06T06:51:48.720Z,47.7
2019-02-06T06:56:53.424Z,47.6
2019-02-06T07:01:58.264Z,47.6
2019-02-06T07:07:00.065Z,47.5
2019-02-06T07:12:04.891Z,47.4
2019-02-06T07:17:06.811Z,47.4
2019-02-06T07:22:08.915Z,47.3
2019-02-06T07:32:17.075Z,47.2
2019-02-06T07:37:22.299Z,47.2
2019-02-06T07:42:27.412Z,47.1
2019-02-06T07:47:29.662Z,47.1
2019-02-06T07:52:31.420Z,47
2019-02-06T07:57:33.226Z,46.9
2019-02-06T08:02:35.622Z,46.9
2019-02-06T08:07:38.301Z,46.8
2019-02-06T08:12:40.392Z,46.8
2019-02-06T08:17:42.714Z,46.7
2019-02-06T08:22:47.663Z,46.7
2019-02-06T08:27:49.493Z,46.6
2019-02-06T08:32:51.363Z,46.6
2019-02-06T08:37:54.190Z,46.5
2019-02-06T08:42:56.973Z,46.5
2019-02-06T08:47:58.832Z,46.4
2019-02-06T08:53:02.549Z,46.4
2019-02-06T08:58:04.305Z,46.3
2019-02-06T09:03:15.544Z,46.2
2019-02-06T09:08:17.299Z,46.2
2019-02-06T09:13:20.672Z,46.2
2019-02-06T09:18:22.698Z,46.1
2019-02-06T09:23:24.485Z,46.1
2019-02-06T09:28:26.363Z,46
2019-02-06T09:33:29.752Z,45.9
2019-02-06T09:38:35.749Z,45.9
2019-02-06T09:43:37.801Z,45.9
2019-02-06T09:48:39.600Z,45.8
2019-02-06T09:53:41.386Z,45.8
2019-02-06T09:58:43.343Z,45.7
2019-02-06T10:03:56.014Z,45.6
2019-02-06T10:08:57.836Z,45.6
2019-02-06T10:13:59.619Z,45.6
2019-02-06T10:19:01.355Z,45.5
2019-02-06T10:24:03.405Z,45.5
2019-02-06T10:29:05.164Z,45.4
2019-02-06T10:34:11.582Z,45.4
2019-02-06T10:39:13.373Z,45.3
2019-02-06T10:44:16.127Z,45.2
2019-02-06T10:49:21.826Z,45.2
2019-02-06T10:54:28.955Z,45.1
2019-02-06T10:59:33.453Z,45.1
2019-02-06T11:09:45.830Z,45
2019-02-06T11:14:48.040Z,44.9
2019-02-06T11:19:49.817Z,44.9
2019-02-06T11:24:53.717Z,44.8
2019-02-06T11:29:55.419Z,44.8
2019-02-06T11:34:57.271Z,44.7
2019-02-06T11:40:00.476Z,44.7
2019-02-06T11:45:02.255Z,44.6
2019-02-06T11:50:04.400Z,44.6
2019-02-06T11:55:08.541Z,44.6
2019-02-06T12:00:13.419Z,44.5
2019-02-06T12:05:15.602Z,44.5
2019-02-06T12:10:26.242Z,44.4
2019-02-06T12:15:28.075Z,44.4
2019-02-06T12:20:29.745Z,44.4
2019-02-06T12:25:34.319Z,44.3
2019-02-06T12:30:36.530Z,44.2
2019-02-06T12:35:38.222Z,44.2
2019-02-06T12:40:40.113Z,44.2
2019-02-06T12:45:43.838Z,44.1
2019-02-06T12:50:45.517Z,44.1
2019-02-06T12:55:50.131Z,44
2019-02-06T13:00:55.119Z,44
2019-02-06T13:05:56.867Z,43.9
2019-02-06T13:10:59.658Z,43.9
2019-02-06T13:16:02.831Z,43.9
2019-02-06T13:21:05.616Z,43.8
2019-02-06T13:26:10.335Z,43.7
2019-02-06T13:31:14.697Z,43.7
2019-02-06T13:36:19.955Z,43.7
2019-02-06T13:41:23.964Z,43.6
2019-02-06T13:46:25.660Z,43.6
2019-02-06T13:51:28.634Z,43.6
2019-02-06T13:56:31.078Z,43.5
2019-02-06T14:01:41.621Z,43.5
2019-02-06T14:06:45.085Z,43.4
2019-02-06T14:11:47.124Z,43.4
2019-02-06T14:16:48.844Z,43.4
2019-02-06T14:21:50.872Z,43.3
2019-02-06T14:26:53.199Z,43.3
2019-02-06T14:32:16.159Z,43.3
2019-02-06T14:37:21.823Z,43.2
2019-02-06T14:42:26.509Z,43.1
2019-02-06T14:47:28.336Z,43.1
2019-02-06T14:52:52.244Z,43.1
2019-02-06T14:57:54.237Z,43
2019-02-06T15:02:55.892Z,43
2019-02-06T15:08:07.547Z,42.9
2019-02-06T15:13:09.241Z,42.9
2019-02-06T15:18:11.043Z,42.8
2019-02-06T15:23:13.160Z,42.7
2019-02-06T15:28:17.829Z,42.7
2019-02-06T15:33:19.588Z,42.7
2019-02-06T15:38:24.205Z,42.7
2019-02-06T15:48:33.841Z,42.6
2019-02-06T15:53:35.602Z,42.6
2019-02-06T15:58:38.347Z,42.5
2019-02-06T16:03:40.053Z,42.5
2019-02-06T16:08:41.850Z,42.1
2019-02-06T16:13:43.654Z,41.9
2019-02-06T16:18:45.296Z,41.9
2019-02-06T16:23:49.604Z,41.8
2019-02-06T16:28:56.641Z,41.8
2019-02-06T16:33:59.316Z,41.7
2019-02-06T16:39:01.854Z,41.7
2019-02-06T16:44:03.529Z,41.7
2019-02-06T16:49:08.013Z,41.7
2019-02-06T16:54:10.279Z,41.6
2019-02-06T16:59:11.965Z,41.6
2019-02-06T17:04:13.921Z,41.6
2019-02-06T17:09:16.023Z,41.5
2019-02-06T17:14:18.720Z,41.5
2019-02-06T17:19:26.930Z,41.4
2019-02-06T17:24:28.571Z,41.4
2019-02-06T17:29:33.129Z,41.6
2019-02-06T17:34:34.821Z,43.9
2019-02-06T17:39:36.566Z,45.6
2019-02-06T17:44:38.331Z,46.9
2019-02-06T17:49:40.297Z,48.1
2019-02-06T17:54:42.275Z,48.9
2019-02-06T17:59:44.183Z,49.7
2019-02-06T18:04:46.163Z,50.2
2019-02-06T18:09:48.106Z,50.2
2019-02-06T18:14:50.197Z,50.1
2019-02-06T18:19:55.445Z,50.1
2019-02-06T18:25:00.433Z,50.1
2019-02-06T18:30:06.495Z,50.5
2019-02-06T18:35:12.355Z,51.2
2019-02-06T18:40:18.271Z,51.7
2019-02-06T18:45:20.639Z,52.2
2019-02-06T18:50:22.678Z,52.9
2019-02-06T18:55:30.451Z,53.4
2019-02-06T19:00:36.518Z,53.9
2019-02-06T19:05:40.544Z,54.3
2019-02-06T19:10:45.526Z,54.7
2019-02-06T19:15:56.302Z,55
2019-02-06T19:20:58.782Z,55.3
2019-02-06T19:26:03.704Z,55.4
2019-02-06T19:31:05.955Z,55.7
2019-02-06T19:36:08.076Z,55.9
2019-02-06T19:41:10.763Z,55.9
2019-02-06T19:46:12.848Z,56
2019-02-06T19:51:14.976Z,56.1
2019-02-06T19:56:17.807Z,56.1
2019-02-06T20:01:20.049Z,56.1
2019-02-06T20:06:22.222Z,56.2
2019-02-06T20:11:24.342Z,56.3
2019-02-06T20:16:26.474Z,56.9
2019-02-06T20:21:28.568Z,56.7
2019-02-06T20:26:33.802Z,56.6
2019-02-06T20:31:40.670Z,56.5
2019-02-06T20:36:43.761Z,55.9
2019-02-06T20:41:48.868Z,55.7
2019-02-06T20:46:51.053Z,55.6
2019-02-06T20:51:53.109Z,55.4
2019-02-06T20:56:55.210Z,55.2
2019-02-06T21:01:57.302Z,55.1
2019-02-06T21:07:01.282Z,55
2019-02-06T21:12:03.332Z,54.9
2019-02-06T21:17:05.349Z,54.7
2019-02-06T21:22:07.849Z,54.6
2019-02-06T21:27:10.162Z,54.4
2019-02-06T21:32:12.417Z,54.3
2019-02-06T21:37:17.380Z,54.1
2019-02-06T21:42:19.361Z,54
2019-02-06T21:47:24.927Z,53.9
2019-02-06T21:52:28.128Z,53.7
2019-02-06T21:57:36.394Z,53.6
2019-02-06T22:02:39.417Z,53.4
2019-02-06T22:07:41.470Z,53.3
2019-02-06T22:12:43.884Z,53.2
2019-02-06T22:17:48.662Z,53.1
2019-02-06T22:22:51.162Z,52.9
2019-02-06T22:27:55.081Z,52.7
2019-02-06T22:32:57.103Z,52.6
2019-02-06T22:38:00.304Z,52.5
2019-02-06T22:43:05.242Z,52.4
2019-02-06T22:48:10.417Z,52.2
2019-02-06T22:53:12.369Z,52.1
2019-02-06T22:58:19.883Z,52
2019-02-06T23:03:24.558Z,51.9
2019-02-06T23:08:29.670Z,51.7
2019-02-06T23:18:37.586Z,51.5
2019-02-06T23:23:41.883Z,51.4
2019-02-06T23:28:43.788Z,51.2
2019-02-06T23:33:47.871Z,51.1
2019-02-06T23:38:52.453Z,51
2019-02-06T23:43:55.424Z,50.9
2019-02-06T23:48:57.366Z,50.8
2019-02-06T23:53:59.344Z,50.6
2019-02-06T23:59:01.298Z,50.5
